Aérodrome :
LOGIN :

S'inscrire | Disclaimer

   EN    FR    IT 

 










Légende :    VFR   VFR Marginal   IFR   IFR Intensif   IFR Très Intensif
Visi : 
Plafond : 
>= 8 km
>= 3000ft
5 à 8 km
1000 à 3000 ft
1500m à 5 km
500 à 1000 ft
800 à 1500m
200 à 500 ft
< 800m
< 200 ft
Symboles :   Orages  Brouillard  Fortes neiges  Fortes précipitations  Vent > 20 kt
SIGMETs :   Divers  Orages  Givrage  Turbulence  Onde Orograph.  Cendres Volcan.







- Altitude de l'aérodrome : 468 ft
- Code IATA : GRO


LEGE - Girona Costa Brava

DERNIER METAR :
  • 202330Z 02004KT 340V050 9999 FEW040 17/14 Q1014

METARs EXPIRÉS :
  • 202300Z 01003KT 9999 FEW040 19/14 Q1014
  • 202230Z 00000KT 9999 FEW030 19/14 Q1014
  • 202200Z 36003KT 9999 FEW030 20/15 Q1014
  • 202130Z 36004KT 310V050 9999 FEW030 20/15 Q1014
  • 202100Z 02003KT 350V060 9999 FEW030 21/15 Q1014

TAF TAF LEGE
Valide du 21 à 00h jusqu'au 22 à 00h UTC


202300Z 2100/2124 VRB03KT 9999 FEW040 TX31/2113Z TN18/2106Z
BECMG 2107/2109 04008KT
PROB40
TEMPO 2112/2124 FEW030CB
Pas de NOTAMs connus pour ce terrain.



MET'MAP, la Météo Aéronautique d'un coup d'oeil ! - Copyright ORBIFLY Décembre 2007 - Disclaimer

ORBIFLY MET'MAP TEAM :

Programmation & Développement : Alexandra Zaïnal
Conception & Développement : Baudouin d'Aumeries
Co-Programmation & Développement : Marc-Olivier Méhu
Soutien technique & logistique : Manuel Goepfert

Contact : metmap@orbifly.com




SOURCES & CREDITS :

   NOAA